Smith, Nevada
Current Conditions -  °F | °C
As of 4:52 PM on Saturday 22 Nov 2014 (Local Time) from KBAN Reporting Station
Few Clouds Few Clouds  
Wind Chill: 32°   Ceiling: Unl
Heat Index: 41°   Visibility: NA
Dew Point: 25°   Wind: 20mph
Humidity: 53%   Direction: 240°WSW
Pressure: 30.08"   Gusts: 25mph
Location:  38.8°N, 119.33°W
Report Text: KBAN 230052Z AUTO 24017G22KT FEW049 05/M04 A3008 RMK AO2 PK WND 27026/0025 SLP158 T00501039 $
Loading
Personal Weather Stations






























Interactive Weather Map New forecast layout! Learn more

10-Day Weather Forecast

Advertisements
Track Severe Weather on mobile